Bunschoten, Netherlands
Current Conditions -  °F | °C
As of 4:55 PM on Wednesday 28 Jan 2015 (Local Time) from EHDL Reporting Station
Rain Showers Rain Showers  
Wind Chill: 29°   Ceiling: 1000
Heat Index: 39°   Visibility: 6mi
Dew Point: 37°   Wind: 22mph
Humidity: 93%   Direction: 300°WNW
Pressure: 29.35"   Gusts: NA
Location:  52.24°N, 5.38°E
Report Text: EHDL 281555Z AUTO 30019KT 9000 -SHRA FEW006/// BKN010/// BKN013/// FEW015TCU 04/03 Q0994 RERA GRN
Loading
Personal Weather Stations






























Interactive Weather Map New forecast layout! Learn more

10-Day Weather Forecast

Advertisements
Track Severe Weather on mobile